Time;durP1;ratioP1;P1;durP2;ratioP2;P2;SDS_P1;SDS_P2;PMS_P1;PMS_P2;Temp;Humidity;BMP_temperature;BMP_pressure;BME280_temperature;BME280_humidity;BME280_pressure;Samples;Min_cycle;Max_cycle;Signal;HPM_P1;HPM_P2
2023/03/08 00:00:50;;;;;;;6.38;3.28;;;0.30;99.90;;;;;;5087767;28;20376;-66
2023/03/08 00:03:16;;;;;;;5.00;3.40;;;0.30;99.90;;;;;;5071943;28;20041;-66
2023/03/08 00:05:43;;;;;;;6.22;3.38;;;0.30;99.90;;;;;;5079003;28;20401;-66
2023/03/08 00:08:09;;;;;;;3.97;3.15;;;0.30;99.90;;;;;;5073284;28;20466;-66
2023/03/08 00:10:35;;;;;;;6.15;3.30;;;0.30;99.90;;;;;;5071516;28;20098;-66
2023/03/08 00:13:01;;;;;;;4.20;3.13;;;0.30;99.90;;;;;;5071385;28;20119;-66
2023/03/08 00:15:26;;;;;;;5.63;3.70;;;0.30;99.90;;;;;;5081672;28;20106;-66
2023/03/08 00:17:52;;;;;;;5.78;3.63;;;0.30;99.90;;;;;;5078871;28;20039;-66
2023/03/08 00:20:18;;;;;;;4.40;3.60;;;0.30;99.90;;;;;;5084072;28;20031;-66
2023/03/08 00:22:43;;;;;;;5.38;3.50;;;0.30;99.90;;;;;;5069858;28;20071;-67
2023/03/08 00:25:10;;;;;;;4.70;3.70;;;0.30;99.90;;;;;;5075176;28;20039;-67
2023/03/08 00:27:36;;;;;;;5.22;3.47;;;0.40;99.90;;;;;;5082267;28;20090;-67
2023/03/08 00:30:04;;;;;;;5.22;3.63;;;0.30;99.90;;;;;;5067657;28;20124;-67
2023/03/08 00:32:30;;;;;;;6.13;3.80;;;0.20;99.90;;;;;;5078604;28;20047;-67
2023/03/08 00:34:56;;;;;;;4.60;3.92;;;0.20;99.90;;;;;;5069167;28;20442;-66
2023/03/08 00:37:21;;;;;;;6.28;3.70;;;0.20;99.90;;;;;;5065534;28;20063;-67
2023/03/08 00:39:51;;;;;;;4.50;4.03;;;0.20;99.90;;;;;;5070923;28;20037;-66
2023/03/08 00:42:17;;;;;;;7.57;4.35;;;0.20;99.90;;;;;;5071001;28;20060;-67
2023/03/08 00:44:43;;;;;;;6.10;3.80;;;0.20;99.90;;;;;;5067126;28;20439;-67
2023/03/08 00:47:09;;;;;;;5.47;4.03;;;0.20;99.90;;;;;;5050665;28;20157;-67
2023/03/08 00:49:35;;;;;;;7.68;4.40;;;0.20;99.90;;;;;;5085299;28;20490;-66
2023/03/08 00:52:01;;;;;;;5.00;3.75;;;0.20;99.90;;;;;;5061082;28;20056;-67
2023/03/08 00:54:28;;;;;;;5.22;3.92;;;0.20;99.90;;;;;;5073762;28;20040;-66
2023/03/08 00:56:53;;;;;;;6.82;4.30;;;0.10;99.90;;;;;;5052177;28;20053;-66
2023/03/08 00:59:19;;;;;;;5.90;4.55;;;0.10;99.90;;;;;;5048904;28;20045;-67
2023/03/08 01:01:45;;;;;;;7.85;4.38;;;0.10;99.90;;;;;;5070536;28;20079;-67
2023/03/08 01:04:11;;;;;;;8.00;4.53;;;0.10;99.90;;;;;;5067749;28;20057;-67
2023/03/08 01:06:38;;;;;;;6.60;4.90;;;0.10;99.90;;;;;;5067471;28;20048;-67
2023/03/08 01:09:03;;;;;;;5.53;4.53;;;0.10;99.90;;;;;;5060144;28;20033;-67
2023/03/08 01:11:30;;;;;;;6.68;4.50;;;0.10;99.90;;;;;;5067913;28;20051;-67
2023/03/08 01:13:55;;;;;;;5.40;4.45;;;0.10;99.90;;;;;;5069701;28;20175;-67
2023/03/08 01:16:27;;;;;;;6.43;4.53;;;0.10;99.90;;;;;;5072628;28;20179;-67
2023/03/08 01:18:54;;;;;;;8.60;4.82;;;0.10;99.90;;;;;;5070535;28;20043;-66
2023/03/08 01:21:20;;;;;;;8.35;5.05;;;0.10;99.90;;;;;;5049934;28;20061;-67
2023/03/08 01:23:46;;;;;;;6.80;5.03;;;0.10;99.90;;;;;;5069661;28;20041;-66
2023/03/08 01:26:18;;;;;;;6.82;4.72;;;0.10;99.90;;;;;;5070813;28;20036;-67
2023/03/08 01:28:44;;;;;;;9.10;5.15;;;0.10;99.90;;;;;;5066259;28;20036;-67
2023/03/08 01:31:13;;;;;;;7.40;5.13;;;0.10;99.90;;;;;;5070582;28;20040;-67
2023/03/08 01:33:39;;;;;;;8.02;5.43;;;0.10;99.90;;;;;;5079122;28;20044;-67
2023/03/08 01:36:07;;;;;;;7.13;5.07;;;0.10;99.90;;;;;;5063984;28;20303;-66
2023/03/08 01:38:33;;;;;;;9.10;5.78;;;0.10;99.90;;;;;;5062090;28;20029;-67
2023/03/08 01:41:00;;;;;;;7.15;4.90;;;0.10;99.90;;;;;;5055083;28;20051;-66
2023/03/08 01:43:29;;;;;;;8.00;5.30;;;0.10;99.90;;;;;;5080243;28;20089;-67
2023/03/08 01:46:09;;;;;;;7.78;5.85;;;0.20;99.90;;;;;;5071190;28;20430;-67
2023/03/08 01:48:44;;;;;;;7.80;5.50;;;0.10;99.90;;;;;;5078255;28;20094;-67
2023/03/08 01:51:11;;;;;;;12.80;5.85;;;0.10;99.90;;;;;;5050469;28;20056;-67
2023/03/08 01:53:38;;;;;;;6.70;5.15;;;0.10;99.90;;;;;;5073106;28;20056;-67
2023/03/08 01:56:08;;;;;;;10.48;6.32;;;0.10;99.90;;;;;;5073416;28;20055;-66
2023/03/08 01:58:34;;;;;;;8.40;5.80;;;0.10;99.90;;;;;;5083019;28;20062;-67
2023/03/08 02:01:00;;;;;;;9.00;5.60;;;0.10;99.90;;;;;;5082756;28;20032;-67
2023/03/08 02:03:26;;;;;;;9.23;6.57;;;0.10;99.90;;;;;;5077409;28;20036;-67
2023/03/08 02:05:51;;;;;;;9.82;6.25;;;0.10;99.90;;;;;;5074592;28;20044;-67
2023/03/08 02:08:17;;;;;;;8.88;6.03;;;0.00;99.90;;;;;;5070188;28;20037;-67
2023/03/08 02:10:43;;;;;;;9.52;6.45;;;0.10;99.90;;;;;;5075773;28;20409;-66
2023/03/08 02:13:10;;;;;;;12.02;6.80;;;0.10;99.90;;;;;;5070956;28;20085;-67
2023/03/08 02:15:35;;;;;;;11.20;7.07;;;0.00;99.90;;;;;;5077766;28;20103;-67
2023/03/08 02:18:01;;;;;;;10.43;6.95;;;0.00;99.90;;;;;;5054658;28;20146;-67
2023/03/08 02:20:38;;;;;;;8.80;6.32;;;0.00;99.90;;;;;;5073491;28;20554;-67
2023/03/08 02:23:12;;;;;;;11.75;7.35;;;-0.10;99.90;;;;;;5075476;28;20093;-67
2023/03/08 02:25:39;;;;;;;8.55;6.43;;;0.00;99.90;;;;;;5073264;28;20086;-67
2023/03/08 02:28:05;;;;;;;8.98;7.00;;;-0.10;99.90;;;;;;5073583;28;20386;-67
2023/03/08 02:30:36;;;;;;;9.23;7.10;;;-0.10;99.90;;;;;;5084688;28;20390;-67
2023/03/08 02:33:02;;;;;;;11.25;6.68;;;-0.10;99.90;;;;;;5076331;28;20037;-67
2023/03/08 02:35:29;;;;;;;11.90;7.38;;;-0.10;99.90;;;;;;5071993;28;20082;-67
2023/03/08 02:37:54;;;;;;;12.48;8.10;;;-0.10;99.90;;;;;;5055744;28;20398;-67
2023/03/08 02:40:21;;;;;;;11.45;7.60;;;-0.10;99.90;;;;;;5081240;28;20032;-67
2023/03/08 02:42:46;;;;;;;12.80;7.32;;;-0.10;99.90;;;;;;5071729;28;20037;-66
2023/03/08 02:45:12;;;;;;;10.52;7.47;;;-0.10;99.90;;;;;;5074602;28;20040;-66
2023/03/08 02:47:37;;;;;;;11.57;7.80;;;-0.10;99.90;;;;;;5072646;28;20028;-66
2023/03/08 02:50:04;;;;;;;13.55;8.50;;;-0.20;99.90;;;;;;5074527;28;20032;-67
2023/03/08 02:52:30;;;;;;;11.13;7.43;;;-0.10;99.90;;;;;;5076513;28;20037;-66
2023/03/08 02:54:55;;;;;;;12.55;8.15;;;-0.20;99.90;;;;;;5056406;28;20071;-66
2023/03/08 02:57:21;;;;;;;9.82;7.72;;;-0.10;99.90;;;;;;5081863;28;20064;-67
2023/03/08 02:59:46;;;;;;;12.35;7.93;;;-0.20;99.90;;;;;;5065364;28;20086;-66
2023/03/08 03:02:12;;;;;;;11.50;8.05;;;-0.20;99.90;;;;;;5068379;28;20446;-67
2023/03/08 03:04:37;;;;;;;11.32;8.00;;;-0.20;99.90;;;;;;5073499;28;20044;-66
2023/03/08 03:07:03;;;;;;;14.02;8.70;;;-0.20;99.90;;;;;;5069592;28;20587;-67
2023/03/08 03:09:29;;;;;;;10.65;7.45;;;-0.20;99.90;;;;;;5072026;28;20047;-67
2023/03/08 03:11:55;;;;;;;13.27;8.35;;;-0.20;99.90;;;;;;5081860;28;20127;-67
2023/03/08 03:14:21;;;;;;;9.65;8.32;;;-0.20;99.90;;;;;;5083625;28;20040;-66
2023/03/08 03:16:46;;;;;;;12.88;8.15;;;-0.20;99.90;;;;;;5077043;28;20512;-66
2023/03/08 03:19:12;;;;;;;11.10;8.15;;;-0.20;99.90;;;;;;5073343;28;20113;-66
2023/03/08 03:21:39;;;;;;;11.70;8.38;;;-0.20;99.90;;;;;;5082417;28;20482;-67
2023/03/08 03:24:05;;;;;;;10.15;7.93;;;-0.30;99.90;;;;;;5073460;28;20087;-66
2023/03/08 03:26:31;;;;;;;11.18;7.85;;;-0.20;99.90;;;;;;5079652;28;20517;-67
2023/03/08 03:28:58;;;;;;;14.13;8.57;;;-0.20;99.90;;;;;;5054558;28;20095;-67
2023/03/08 03:31:24;;;;;;;14.43;8.27;;;-0.20;99.90;;;;;;5055309;28;20037;-66
2023/03/08 03:33:50;;;;;;;13.23;7.80;;;-0.20;99.90;;;;;;5081295;28;20406;-66
2023/03/08 03:36:18;;;;;;;12.50;8.25;;;-0.30;99.90;;;;;;5079518;28;20495;-67
2023/03/08 03:38:45;;;;;;;14.23;8.63;;;-0.30;99.90;;;;;;5071632;28;20082;-66
2023/03/08 03:41:17;;;;;;;14.75;8.63;;;-0.20;99.90;;;;;;5062802;28;20071;-67
2023/03/08 03:43:43;;;;;;;14.25;8.65;;;-0.30;99.90;;;;;;5081705;28;20041;-66
2023/03/08 03:46:14;;;;;;;12.43;8.45;;;-0.30;99.90;;;;;;5055271;28;20394;-67
2023/03/08 03:48:40;;;;;;;16.42;9.18;;;-0.30;99.90;;;;;;5069194;28;20036;-66
2023/03/08 03:51:10;;;;;;;14.70;8.48;;;-0.30;99.90;;;;;;5075221;28;20040;-66
2023/03/08 03:53:35;;;;;;;14.77;8.73;;;-0.30;99.90;;;;;;5084120;28;20130;-66
2023/03/08 03:56:07;;;;;;;14.40;8.43;;;-0.30;99.90;;;;;;5078491;28;20040;-67
2023/03/08 03:58:32;;;;;;;;;;;-0.40;99.90;;;;;;5053711;28;20028;-66
2023/03/08 04:00:58;;;;;;;9.68;7.55;;;-0.40;99.90;;;;;;5073132;28;19916;-66
2023/03/08 04:03:24;;;;;;;11.50;7.18;;;-0.40;99.90;;;;;;5054647;28;20405;-67
2023/03/08 04:05:49;;;;;;;12.07;8.05;;;-0.40;99.90;;;;;;5068872;28;20413;-67
2023/03/08 04:08:15;;;;;;;11.35;8.23;;;-0.50;99.90;;;;;;5071831;28;20036;-66
2023/03/08 04:10:41;;;;;;;11.93;8.55;;;-0.50;99.90;;;;;;5081584;28;20043;-66
2023/03/08 04:13:07;;;;;;;13.30;8.98;;;-0.50;99.90;;;;;;5070602;28;20072;-66
2023/03/08 04:15:32;;;;;;;13.85;9.80;;;-0.50;99.90;;;;;;5071761;28;20056;-66
2023/03/08 04:17:58;;;;;;;11.45;8.43;;;-0.50;99.90;;;;;;5052697;28;20032;-66
2023/03/08 04:20:24;;;;;;;14.30;9.50;;;-0.50;99.90;;;;;;5071806;28;20028;-67
2023/03/08 04:22:49;;;;;;;11.48;8.80;;;-0.50;99.90;;;;;;5072385;28;20064;-67
2023/03/08 04:25:15;;;;;;;13.23;8.57;;;-0.50;99.90;;;;;;5079113;28;20135;-67
2023/03/08 04:27:41;;;;;;;13.15;8.55;;;-0.50;99.90;;;;;;5074052;28;20090;-67
2023/03/08 04:30:07;;;;;;;11.65;8.48;;;-0.50;99.90;;;;;;5070534;28;20037;-66
2023/03/08 04:32:33;;;;;;;11.95;8.55;;;-0.50;99.90;;;;;;5069773;28;20040;-66
2023/03/08 04:34:58;;;;;;;11.95;8.27;;;-0.50;99.90;;;;;;5084496;28;20047;-66
2023/03/08 04:37:24;;;;;;;11.63;8.80;;;-0.50;99.90;;;;;;5073393;28;20032;-66
2023/03/08 04:39:50;;;;;;;11.23;8.25;;;-0.50;99.90;;;;;;5073124;28;20040;-66
2023/03/08 04:42:15;;;;;;;12.73;8.82;;;-0.50;99.90;;;;;;5077724;28;20041;-66
2023/03/08 04:44:41;;;;;;;11.77;8.90;;;-0.50;99.90;;;;;;5071600;28;20048;-66
2023/03/08 04:47:06;;;;;;;10.40;8.10;;;-0.50;99.90;;;;;;5087875;22;20482;-64
2023/03/08 04:49:32;;;;;;;13.18;8.48;;;-0.50;99.90;;;;;;5065248;28;20043;-64
2023/03/08 04:51:58;;;;;;;12.25;7.97;;;-0.50;99.90;;;;;;5066689;28;20379;-64
2023/03/08 04:54:23;;;;;;;11.52;7.90;;;-0.50;99.90;;;;;;5070350;28;20036;-64
2023/03/08 04:56:49;;;;;;;10.57;7.55;;;-0.50;99.90;;;;;;5069243;28;20174;-64
2023/03/08 04:59:14;;;;;;;10.52;7.65;;;-0.60;99.90;;;;;;5070078;28;20032;-64
2023/03/08 05:01:41;;;;;;;12.68;7.50;;;-0.60;99.90;;;;;;5072461;28;20079;-64
2023/03/08 05:04:10;;;;;;;12.32;7.70;;;-0.60;99.90;;;;;;5071445;28;20039;-64
2023/03/08 05:06:36;;;;;;;8.93;7.50;;;-0.60;99.90;;;;;;5067872;28;20032;-65
2023/03/08 05:09:02;;;;;;;10.35;7.85;;;-0.70;99.90;;;;;;5062434;28;20041;-64
2023/03/08 05:11:29;;;;;;;12.13;8.45;;;-0.70;99.90;;;;;;5068875;28;20481;-64
2023/03/08 05:13:56;;;;;;;11.80;7.68;;;-0.70;99.90;;;;;;5071224;28;20037;-64
2023/03/08 05:16:22;;;;;;;14.35;7.93;;;-0.60;99.90;;;;;;5073150;28;20036;-64
2023/03/08 05:18:48;;;;;;;10.35;7.43;;;-0.70;99.90;;;;;;5070352;28;20047;-65
2023/03/08 05:21:17;;;;;;;9.00;6.68;;;-0.70;99.90;;;;;;5045079;28;20037;-65
2023/03/08 05:23:43;;;;;;;12.10;7.32;;;-0.70;99.90;;;;;;5064742;28;20509;-65
2023/03/08 05:26:11;;;;;;;10.23;7.68;;;-0.70;99.90;;;;;;5066911;28;20036;-64
2023/03/08 05:28:37;;;;;;;9.40;7.22;;;-0.80;99.90;;;;;;5068488;28;20040;-64
2023/03/08 05:31:11;;;;;;;11.40;7.72;;;-0.90;99.90;;;;;;5047652;28;20043;-65
2023/03/08 05:33:38;;;;;;;9.98;7.22;;;-0.90;99.90;;;;;;5045658;28;20051;-65
2023/03/08 05:36:05;;;;;;;10.05;6.90;;;-0.90;99.90;;;;;;5042881;28;20456;-65
2023/03/08 05:38:31;;;;;;;9.13;7.15;;;-0.90;99.90;;;;;;5052911;28;20126;-64
2023/03/08 05:41:05;;;;;;;9.50;6.85;;;-0.90;99.90;;;;;;5070205;28;20045;-64
2023/03/08 05:43:30;;;;;;;10.77;7.55;;;-0.90;99.90;;;;;;5055938;28;20063;-64
2023/03/08 05:46:09;;;;;;;8.95;7.43;;;-0.90;99.90;;;;;;5042275;28;21470;-65
2023/03/08 05:48:36;;;;;;;11.75;7.15;;;-0.90;99.90;;;;;;5060185;28;20063;-64
2023/03/08 05:51:13;;;;;;;10.73;6.95;;;-0.90;99.90;;;;;;5070309;28;20553;-64
2023/03/08 05:53:39;;;;;;;10.85;7.32;;;-0.90;99.90;;;;;;5053220;28;20040;-65
2023/03/08 05:56:13;;;;;;;8.45;6.78;;;-1.00;99.90;;;;;;5061892;28;20094;-64
2023/03/08 05:58:40;;;;;;;10.63;6.53;;;-1.00;99.90;;;;;;5052296;28;20044;-64
2023/03/08 06:01:17;;;;;;;9.52;6.38;;;-1.10;99.90;;;;;;5064157;28;20033;-64
2023/03/08 06:03:44;;;;;;;10.10;7.25;;;-1.10;99.90;;;;;;5070219;28;20036;-64
2023/03/08 06:06:09;;;;;;;10.98;6.53;;;-1.10;99.90;;;;;;5078473;28;20037;-64
2023/03/08 06:08:35;;;;;;;11.98;7.93;;;-1.10;99.90;;;;;;5070187;28;20134;-64
2023/03/08 06:11:01;;;;;;;10.73;7.07;;;-1.20;99.90;;;;;;5054623;28;20029;-65
2023/03/08 06:13:27;;;;;;;9.05;7.13;;;-1.20;99.90;;;;;;5051754;28;20051;-64
2023/03/08 06:15:57;;;;;;;9.77;7.65;;;-1.20;99.90;;;;;;5070259;28;20036;-64
2023/03/08 06:18:24;;;;;;;11.95;7.40;;;-1.20;99.90;;;;;;5065111;28;20502;-64
2023/03/08 06:21:03;;;;;;;11.77;7.57;;;-1.10;99.90;;;;;;5070797;28;20036;-64
2023/03/08 06:23:30;;;;;;;10.82;7.45;;;-1.10;99.90;;;;;;5070783;28;20048;-64
2023/03/08 06:25:57;;;;;;;10.23;7.35;;;-1.10;99.90;;;;;;5066062;28;20036;-64
2023/03/08 06:28:23;;;;;;;9.27;7.28;;;-1.10;99.90;;;;;;5069990;28;20102;-64
2023/03/08 06:30:49;;;;;;;8.73;7.15;;;-1.00;99.90;;;;;;5068919;28;20045;-64
2023/03/08 06:33:20;;;;;;;9.00;6.65;;;-1.00;99.90;;;;;;5066397;28;20119;-65
2023/03/08 06:36:07;;;;;;;8.70;6.55;;;-1.00;99.90;;;;;;5066092;28;20046;-65
2023/03/08 06:38:35;;;;;;;9.93;7.40;;;-1.00;99.90;;;;;;5062457;28;20102;-64
2023/03/08 06:41:01;;;;;;;10.52;7.60;;;-0.90;99.90;;;;;;5068897;28;20448;-64
2023/03/08 06:43:27;;;;;;;12.90;7.28;;;-0.90;99.90;;;;;;5072856;28;20032;-64
2023/03/08 06:45:53;;;;;;;11.75;8.50;;;-1.00;99.90;;;;;;5049025;28;20087;-64
2023/03/08 06:48:18;;;;;;;12.48;8.43;;;-0.90;99.90;;;;;;5072814;28;20438;-65
2023/03/08 06:50:44;;;;;;;12.27;8.45;;;-1.00;99.90;;;;;;5051270;28;20127;-64
2023/03/08 06:53:11;;;;;;;14.30;8.52;;;-0.90;99.90;;;;;;5074026;28;20039;-64
2023/03/08 06:55:38;;;;;;;11.57;8.32;;;-0.90;99.90;;;;;;5044651;28;20490;-64
2023/03/08 06:58:04;;;;;;;13.13;8.60;;;-0.90;99.90;;;;;;5072574;28;20036;-65
2023/03/08 07:00:31;;;;;;;11.38;8.45;;;-0.90;99.90;;;;;;5056243;28;20559;-65
2023/03/08 07:02:57;;;;;;;13.05;8.43;;;-0.90;99.90;;;;;;5077063;28;20111;-65
2023/03/08 07:05:22;;;;;;;11.00;8.05;;;-0.80;99.90;;;;;;5056192;28;20079;-65
2023/03/08 07:07:48;;;;;;;10.43;7.75;;;-0.80;99.90;;;;;;5069057;28;20127;-64
2023/03/08 07:10:15;;;;;;;11.60;7.20;;;-0.80;99.90;;;;;;5064073;28;20119;-65
2023/03/08 07:12:45;;;;;;;11.25;7.90;;;-0.80;99.90;;;;;;5071586;28;20064;-65
2023/03/08 07:15:13;;;;;;;13.43;8.93;;;-0.80;99.90;;;;;;5066174;28;20036;-65
2023/03/08 07:17:40;;;;;;;11.98;8.32;;;-0.70;99.90;;;;;;5073983;28;20032;-65
2023/03/08 07:20:06;;;;;;;12.73;8.95;;;-0.70;99.90;;;;;;5054842;28;20162;-65
2023/03/08 07:22:32;;;;;;;20.70;12.20;;;-0.70;99.90;;;;;;5051636;28;20622;-65
2023/03/08 07:24:58;;;;;;;24.10;12.35;;;-0.70;99.90;;;;;;5076113;28;20490;-65
2023/03/08 07:27:23;;;;;;;23.90;13.57;;;-0.70;99.90;;;;;;5069963;28;20071;-65
2023/03/08 07:29:49;;;;;;;19.13;12.60;;;-0.70;99.90;;;;;;5073087;28;20115;-65
2023/03/08 07:32:15;;;;;;;22.45;12.52;;;-0.70;99.90;;;;;;5072129;28;20037;-65
2023/03/08 07:34:41;;;;;;;32.75;15.20;;;-0.70;99.90;;;;;;5051811;28;20139;-65
2023/03/08 07:37:16;;;;;;;56.17;15.95;;;-0.70;99.90;;;;;;5070636;28;20063;-65
2023/03/08 07:39:42;;;;;;;65.97;17.25;;;-0.70;99.90;;;;;;5069769;28;20032;-65
2023/03/08 07:42:09;;;;;;;66.38;15.45;;;-0.60;99.90;;;;;;5044326;28;20603;-65
2023/03/08 07:44:36;;;;;;;61.55;14.48;;;-0.70;99.90;;;;;;5068664;28;20127;-65
2023/03/08 07:47:03;;;;;;;60.30;16.38;;;-0.60;99.90;;;;;;5072850;28;20040;-65
2023/03/08 07:49:28;;;;;;;50.50;13.80;;;-0.70;99.90;;;;;;5063979;28;20517;-65
2023/03/08 07:51:54;;;;;;;42.83;13.73;;;-0.60;99.90;;;;;;5062704;28;20041;-65
2023/03/08 07:54:20;;;;;;;34.70;14.60;;;-0.70;99.90;;;;;;5069977;28;20393;-65
2023/03/08 07:56:46;;;;;;;39.42;14.88;;;-0.70;99.90;;;;;;5048736;28;20124;-65
2023/03/08 07:59:11;;;;;;;44.17;15.82;;;-0.70;99.90;;;;;;5070130;28;20127;-65
2023/03/08 08:01:37;;;;;;;79.55;17.63;;;-0.70;99.90;;;;;;5065429;28;20135;-65
2023/03/08 08:04:03;;;;;;;58.35;17.17;;;-0.70;99.90;;;;;;5067205;28;20047;-65
2023/03/08 08:06:29;;;;;;;87.97;19.42;;;-0.70;99.90;;;;;;5071384;28;20068;-65
2023/03/08 08:08:55;;;;;;;64.97;18.02;;;-0.70;99.90;;;;;;5065153;28;20036;-65
2023/03/08 08:11:21;;;;;;;55.75;16.17;;;-0.60;99.90;;;;;;5069595;28;20082;-65
2023/03/08 08:13:47;;;;;;;79.93;19.02;;;-0.60;99.90;;;;;;5070050;28;20452;-65
2023/03/08 08:16:14;;;;;;;67.10;17.65;;;-0.60;99.90;;;;;;5071601;28;20431;-65
2023/03/08 08:18:40;;;;;;;46.88;17.00;;;-0.60;99.90;;;;;;5070025;28;20068;-65
2023/03/08 08:21:10;;;;;;;55.40;16.67;;;-0.50;99.90;;;;;;5066558;28;20072;-65
2023/03/08 08:23:36;;;;;;;36.20;16.80;;;-0.50;99.90;;;;;;5072356;28;20036;-65
2023/03/08 08:26:08;;;;;;;51.95;18.13;;;-0.50;99.90;;;;;;5072840;28;20166;-65
2023/03/08 08:28:35;;;;;;;39.83;17.52;;;-0.50;99.90;;;;;;5052715;28;20074;-65
2023/03/08 08:31:07;;;;;;;52.38;19.17;;;-0.50;99.90;;;;;;5068817;28;20089;-65
2023/03/08 08:33:33;;;;;;;54.85;20.02;;;-0.50;99.90;;;;;;5054413;28;20040;-65
2023/03/08 08:35:59;;;;;;;35.22;18.92;;;-0.40;99.90;;;;;;5072585;28;20133;-65
2023/03/08 08:38:25;;;;;;;47.47;20.30;;;-0.40;99.90;;;;;;5072475;28;20115;-65
2023/03/08 08:40:51;;;;;;;55.17;20.73;;;-0.30;99.90;;;;;;5052199;28;20033;-65
2023/03/08 08:43:17;;;;;;;62.67;22.60;;;-0.30;99.90;;;;;;5061389;28;20613;-65
2023/03/08 08:45:48;;;;;;;52.83;21.90;;;-0.30;99.90;;;;;;5054286;28;20126;-65
2023/03/08 08:48:14;;;;;;;49.00;21.23;;;-0.20;99.90;;;;;;5050468;28;20459;-66
2023/03/08 08:50:40;;;;;;;40.97;19.58;;;-0.20;99.90;;;;;;5061667;28;20044;-65
2023/03/08 08:53:07;;;;;;;48.50;19.73;;;-0.20;99.90;;;;;;5078925;28;20043;-65
2023/03/08 08:55:33;;;;;;;52.30;20.30;;;-0.10;99.90;;;;;;5072164;28;20036;-65
2023/03/08 08:57:59;;;;;;;51.20;19.23;;;-0.10;99.90;;;;;;5072225;28;20040;-65
2023/03/08 09:00:25;;;;;;;55.15;18.98;;;-0.10;99.90;;;;;;5069348;28;20032;-65
2023/03/08 09:02:50;;;;;;;61.90;21.17;;;-0.10;99.90;;;;;;5068876;28;20039;-65
2023/03/08 09:05:16;;;;;;;58.38;22.67;;;-0.10;99.90;;;;;;5041484;28;20146;-65
2023/03/08 09:07:42;;;;;;;89.57;24.08;;;0.00;99.90;;;;;;5067463;28;20045;-64
2023/03/08 09:10:08;;;;;;;70.65;24.33;;;0.00;99.90;;;;;;5065444;28;20056;-64
2023/03/08 09:12:34;;;;;;;75.40;27.05;;;0.00;99.90;;;;;;5050159;28;20394;-65
2023/03/08 09:14:59;;;;;;;96.53;26.75;;;0.10;99.90;;;;;;5068568;28;20090;-64
2023/03/08 09:17:25;;;;;;;73.75;25.23;;;0.10;99.90;;;;;;5068718;28;20071;-64
2023/03/08 09:19:50;;;;;;;58.50;23.15;;;0.20;99.90;;;;;;5070771;28;20036;-64
2023/03/08 09:22:17;;;;;;;48.30;20.25;;;0.20;99.90;;;;;;5071691;28;20040;-64
2023/03/08 09:24:44;;;;;;;48.80;20.42;;;0.20;99.90;;;;;;5053928;28;20426;-63
2023/03/08 09:27:10;;;;;;;39.80;18.27;;;0.30;99.90;;;;;;5070745;28;20115;-63
2023/03/08 09:29:37;;;;;;;37.33;18.45;;;0.30;99.90;;;;;;5052514;28;20055;-63
2023/03/08 09:32:04;;;;;;;40.28;18.23;;;0.30;99.90;;;;;;5074795;28;20036;-63
2023/03/08 09:34:30;;;;;;;68.35;20.15;;;0.40;99.90;;;;;;5058000;28;20090;-62
2023/03/08 09:36:55;;;;;;;65.07;26.45;;;0.50;99.90;;;;;;5070800;28;20024;-62
2023/03/08 09:39:21;;;;;;;48.85;20.35;;;0.50;99.90;;;;;;5068703;28;20105;-62
2023/03/08 09:41:51;;;;;;;37.42;19.48;;;0.60;99.90;;;;;;5060342;28;20040;-62
2023/03/08 09:44:30;;;;;;;163.48;27.77;;;0.60;99.90;;;;;;5065362;28;20044;-62
2023/03/08 09:47:04;;;;;;;37.00;18.15;;;0.70;99.90;;;;;;5077837;28;20063;-62
2023/03/08 09:49:31;;;;;;;277.60;34.22;;;0.70;99.90;;;;;;5091976;28;20493;-62
2023/03/08 09:52:20;;;;;;;34.90;15.98;;;0.80;99.90;;;;;;5069801;28;20445;-62
2023/03/08 09:54:47;;;;;;;33.95;16.58;;;0.80;99.90;;;;;;5069884;28;20102;-61
2023/03/08 09:57:21;;;;;;;32.92;16.20;;;0.70;99.90;;;;;;5069335;28;20032;-62
2023/03/08 09:59:58;;;;;;;33.10;17.05;;;0.80;99.90;;;;;;5066459;28;20064;-62
2023/03/08 10:02:39;;;;;;;34.42;16.42;;;0.80;99.90;;;;;;5065597;28;20033;-62
2023/03/08 10:05:15;;;;;;;35.07;16.37;;;0.80;99.90;;;;;;5062722;28;20502;-62
2023/03/08 10:07:50;;;;;;;40.47;17.52;;;0.80;99.90;;;;;;5067070;28;20394;-62
2023/03/08 10:10:40;;;;;;;38.13;18.30;;;0.90;99.90;;;;;;5066132;28;20028;-61
2023/03/08 10:13:42;;;;;;;49.47;19.27;;;1.00;99.90;;;;;;5065433;28;20032;-62
2023/03/08 10:16:11;;;;;;;40.40;17.55;;;1.00;99.90;;;;;;5006497;28;20128;-61
2023/03/08 10:19:02;;;;;;;38.00;18.40;;;1.00;99.90;;;;;;5053682;28;21885;-61
2023/03/08 10:21:31;;;;;;;38.45;16.85;;;1.10;99.90;;;;;;5057978;28;20045;-61
2023/03/08 10:24:03;;;;;;;35.47;16.75;;;1.20;99.90;;;;;;5066535;28;20071;-61
2023/03/08 10:26:30;;;;;;;31.95;15.40;;;1.20;99.90;;;;;;5065762;28;20410;-61
2023/03/08 10:28:55;;;;;;;33.80;16.40;;;1.30;99.90;;;;;;5066685;28;20040;-61
2023/03/08 10:31:24;;;;;;;40.00;16.38;;;1.30;99.90;;;;;;5068920;28;20044;-61
2023/03/08 10:34:05;;;;;;;36.75;16.50;;;1.30;99.90;;;;;;5066702;28;20036;-61
2023/03/08 10:36:31;;;;;;;33.42;16.70;;;1.30;99.90;;;;;;5070121;28;20040;-61
2023/03/08 10:39:06;;;;;;;37.97;16.90;;;1.40;99.90;;;;;;5069925;28;20409;-61
2023/03/08 10:41:43;;;;;;;35.83;16.42;;;1.40;99.90;;;;;;5063177;28;20028;-62
2023/03/08 10:44:39;;;;;;;36.90;16.73;;;1.50;99.90;;;;;;5062690;28;20060;-62
2023/03/08 10:47:33;;;;;;;33.05;15.75;;;1.50;99.90;;;;;;5068083;22;20045;-62
2023/03/08 10:50:12;;;;;;;32.53;15.55;;;1.60;99.90;;;;;;5071685;28;20040;-62
2023/03/08 10:52:38;;;;;;;33.58;16.27;;;1.60;99.90;;;;;;5068205;28;20120;-62
2023/03/08 10:55:07;;;;;;;39.38;15.95;;;1.60;99.90;;;;;;5064396;28;20513;-62
2023/03/08 10:57:33;;;;;;;35.75;15.60;;;1.60;99.90;;;;;;5067499;28;20544;-63
2023/03/08 11:00:17;;;;;;;38.97;16.77;;;1.70;99.90;;;;;;5067521;28;20037;-62
2023/03/08 11:02:44;;;;;;;39.08;17.00;;;1.80;99.90;;;;;;5063382;28;20394;-62
2023/03/08 11:05:22;;;;;;;40.70;19.35;;;1.80;99.90;;;;;;5057564;28;20040;-62
2023/03/08 11:07:53;;;;;;;37.78;18.45;;;1.90;99.90;;;;;;5062295;28;20072;-63
2023/03/08 11:10:22;;;;;;;40.70;17.48;;;2.00;99.90;;;;;;5073364;28;20603;-63
2023/03/08 11:12:59;;;;;;;38.22;17.23;;;2.00;99.90;;;;;;5054112;28;20425;-63
2023/03/08 11:15:25;;;;;;;38.67;17.13;;;2.10;99.90;;;;;;5072336;28;20040;-63
2023/03/08 11:17:59;;;;;;;34.95;17.05;;;2.20;99.90;;;;;;5063242;28;20079;-63
2023/03/08 11:20:54;;;;;;;32.67;14.88;;;2.30;99.90;;;;;;5028431;28;20077;-63
2023/03/08 11:23:29;;;;;;;32.10;15.25;;;2.30;99.90;;;;;;5026810;28;20076;-63
2023/03/08 11:26:02;;;;;;;33.35;15.00;;;2.30;99.90;;;;;;5070019;28;20378;-63
2023/03/08 11:28:52;;;;;;;37.00;17.17;;;2.30;99.90;;;;;;5069392;28;20645;-62
2023/03/08 11:31:21;;;;;;;37.42;16.88;;;2.40;99.90;;;;;;5066397;28;20533;-63
2023/03/08 11:34:24;;;;;;;36.35;15.38;;;2.40;99.90;;;;;;5068004;28;20132;-63
2023/03/08 11:37:02;;;;;;;36.88;16.65;;;2.40;99.90;;;;;;5053482;28;20411;-63
2023/03/08 11:39:45;;;;;;;34.28;16.20;;;2.40;99.90;;;;;;5069358;28;20082;-63
2023/03/08 11:42:49;;;;;;;33.97;15.38;;;2.50;99.90;;;;;;5052618;28;20075;-63
2023/03/08 11:45:37;;;;;;;33.30;15.02;;;2.60;99.90;;;;;;5070960;28;20043;-63
2023/03/08 11:48:41;;;;;;;32.10;15.68;;;2.60;99.90;;;;;;5067758;28;20072;-63
2023/03/08 11:51:30;;;;;;;27.95;12.90;;;2.60;99.90;;;;;;5050073;28;20102;-63
2023/03/08 11:54:26;;;;;;;35.05;14.48;;;2.60;99.90;;;;;;5070442;28;20037;-62
2023/03/08 11:57:13;;;;;;;23.40;12.57;;;2.60;99.90;;;;;;5055150;28;20082;-62
2023/03/08 11:59:46;;;;;;;20.65;11.18;;;2.70;99.90;;;;;;5070382;28;20047;-62
2023/03/08 12:02:18;;;;;;;24.30;11.80;;;2.70;99.90;;;;;;5062216;28;20048;-62
2023/03/08 12:05:11;;;;;;;24.20;11.90;;;2.70;99.90;;;;;;5067903;28;20068;-63
2023/03/08 12:07:49;;;;;;;22.33;11.00;;;2.70;99.90;;;;;;5070486;28;20040;-62
2023/03/08 12:10:29;;;;;;;19.60;10.48;;;2.80;99.90;;;;;;5069741;28;20455;-62
2023/03/08 12:13:03;;;;;;;21.90;10.60;;;2.80;99.90;;;;;;5069846;28;20123;-62
2023/03/08 12:15:37;;;;;;;22.33;10.75;;;2.90;99.90;;;;;;5071249;28;20041;-62
2023/03/08 12:18:09;;;;;;;23.52;11.50;;;2.90;99.90;;;;;;5061067;28;20079;-62
2023/03/08 12:20:37;;;;;;;;;;;2.90;99.90;;;;;;5070014;28;20115;-61
2023/03/08 12:23:29;;;;;;;22.90;11.75;;;3.00;99.90;;;;;;5066093;28;19916;-62
2023/03/08 12:26:18;;;;;;;24.50;12.02;;;3.00;99.90;;;;;;5063389;28;20036;-61
2023/03/08 12:28:50;;;;;;;29.45;14.43;;;3.00;99.90;;;;;;5070350;28;20048;-62
2023/03/08 12:31:44;;;;;;;27.60;13.93;;;3.00;99.90;;;;;;5066662;28;20071;-62
2023/03/08 12:34:36;;;;;;;29.95;14.32;;;3.00;99.90;;;;;;5065850;28;20051;-61
2023/03/08 12:37:02;;;;;;;32.38;14.73;;;3.00;99.90;;;;;;5043480;28;20032;-62
2023/03/08 12:39:33;;;;;;;36.53;16.95;;;3.00;99.90;;;;;;5071606;28;20085;-62
2023/03/08 12:42:00;;;;;;;40.08;16.40;;;3.00;99.90;;;;;;5070002;28;20082;-62
2023/03/08 12:44:29;;;;;;;45.40;18.50;;;3.10;99.90;;;;;;5065902;28;20520;-61
2023/03/08 12:47:12;;;;;;;45.70;18.95;;;3.10;99.90;;;;;;5068475;28;20040;-61
2023/03/08 12:49:40;;;;;;;46.92;18.80;;;3.10;99.90;;;;;;5062074;28;20072;-61
2023/03/08 12:52:22;;;;;;;39.75;15.93;;;3.10;99.90;;;;;;5070683;28;20036;-62